Time;durP1;ratioP1;P1;durP2;ratioP2;P2;SDS_P1;SDS_P2;PMS_P1;PMS_P2;Temp;Humidity;BMP_temperature;BMP_pressure;BME280_temperature;BME280_humidity;BME280_pressure;Samples;Min_cycle;Max_cycle;Signal;HPM_P1;HPM_P2
2023/03/24 00:02:02;;;;;;;;;;;;;;;11.48;72.00;99214.44;5117571;28;19920;-65
2023/03/24 00:04:31;;;;;;;;;;;;;;;11.42;72.05;99212.00;5117067;28;19920;-64
2023/03/24 00:07:02;;;;;;;;;;;;;;;11.33;71.98;99205.25;5117444;27;19920;-65
2023/03/24 00:09:32;;;;;;;;;;;;;;;11.29;72.02;99197.66;5117181;28;19920;-65
2023/03/24 00:12:01;;;;;;;;;;;;;;;11.26;72.43;99200.22;5117137;28;19919;-65
2023/03/24 00:14:30;;;;;;;;;;;;;;;11.24;72.16;99199.41;5116942;28;20361;-65
2023/03/24 00:16:58;;;;;;;;;;;;;;;11.18;72.30;99196.94;5117303;28;19962;-64
2023/03/24 00:19:27;;;;;;;;;;;;;;;11.11;72.47;99206.34;5116947;28;20383;-64
2023/03/24 00:21:56;;;;;;;;;;;;;;;11.10;72.69;99204.69;5116693;28;19965;-64
2023/03/24 00:24:24;;;;;;;;;;;;;;;11.15;72.86;99209.72;5117033;28;20003;-65
2023/03/24 00:26:56;;;;;;;;;;;;;;;11.12;72.61;99208.06;5116700;28;19930;-64
2023/03/24 00:29:25;;;;;;;;;;;;;;;11.15;72.84;99207.19;5117385;28;20010;-64
2023/03/24 00:31:54;;;;;;;;;;;;;;;11.13;72.95;99219.94;5117083;28;19976;-65
2023/03/24 00:34:22;;;;;;;;;;;;;;;11.11;72.83;99215.75;5116662;28;19919;-65
2023/03/24 00:36:52;;;;;;;;;;;;;;;11.14;72.88;99210.56;5116507;28;20335;-65
2023/03/24 00:39:21;;;;;;;;;;;;;;;11.09;72.75;99202.97;5115400;28;19920;-64
2023/03/24 00:41:49;;;;;;;;;;;;;;;11.05;72.77;99205.56;5116781;28;20388;-65
2023/03/24 00:44:20;;;;;;;;;;;;;;;11.03;73.05;99212.41;5116438;28;19927;-64
2023/03/24 00:46:54;;;;;;;;;;;;;;;10.98;72.75;99209.06;5115417;28;19926;-63
2023/03/24 00:49:40;;;;;;;;;;;;;;;10.95;73.42;99214.19;5114429;28;19923;-64
2023/03/24 00:52:10;;;;;;;;;;;;;;;10.96;73.54;99205.69;5116348;28;19966;-64
2023/03/24 00:54:39;;;;;;;;;;;;;;;10.99;73.21;99195.44;5116354;28;20392;-64
2023/03/24 00:57:11;;;;;;;;;;;;;;;11.05;73.40;99195.34;5115249;28;19984;-64
2023/03/24 00:59:47;;;;;;;;;;;;;;;11.10;73.28;99193.59;5115047;28;19920;-64
2023/03/24 01:02:18;;;;;;;;;;;;;;;11.10;73.26;99188.50;5116191;28;19919;-65
2023/03/24 01:04:47;;;;;;;;;;;;;;;11.09;73.34;99189.34;5115245;28;19920;-65
2023/03/24 01:07:16;;;;;;;;;;;;;;;11.11;73.02;99185.09;5115842;28;19919;-65
2023/03/24 01:09:50;;;;;;;;;;;;;;;11.11;73.21;99175.69;5116031;27;19919;-64
2023/03/24 01:12:21;;;;;;;;;;;;;;;11.12;73.27;99185.06;5116309;28;19924;-65
2023/03/24 01:14:52;;;;;;;;;;;;;;;11.11;73.33;99174.88;5114659;28;19931;-65
2023/03/24 01:17:24;;;;;;;;;;;;;;;11.12;72.95;99167.19;5114609;28;19962;-64
2023/03/24 01:19:53;;;;;;;;;;;;;;;11.10;73.21;99162.97;5115830;28;19919;-64
2023/03/24 01:22:22;;;;;;;;;;;;;;;11.08;73.30;99174.91;5114524;28;19919;-64
2023/03/24 01:24:52;;;;;;;;;;;;;;;11.00;73.63;99174.13;5115194;28;19923;-64
2023/03/24 01:27:20;;;;;;;;;;;;;;;11.01;73.69;99173.28;5115530;28;19972;-64
2023/03/24 01:29:49;;;;;;;;;;;;;;;10.95;73.85;99168.22;5115548;28;20015;-64
2023/03/24 01:32:19;;;;;;;;;;;;;;;10.98;73.59;99158.00;5115498;28;19925;-64
2023/03/24 01:34:47;;;;;;;;;;;;;;;10.98;73.73;99168.19;5115525;28;19969;-64
2023/03/24 01:37:16;;;;;;;;;;;;;;;10.93;73.67;99164.84;5115417;28;19923;-64
2023/03/24 01:39:45;;;;;;;;;;;;;;;10.89;73.96;99160.66;5114290;28;19930;-64
2023/03/24 01:42:17;;;;;;;;;;;;;;;10.93;74.29;99169.94;5115342;28;19923;-64
2023/03/24 01:44:46;;;;;;;;;;;;;;;10.93;74.25;99159.75;5115643;28;19973;-64
2023/03/24 01:47:16;;;;;;;;;;;;;;;10.98;74.16;99168.19;5115152;28;20010;-64
2023/03/24 01:49:48;;;;;;;;;;;;;;;10.97;74.31;99162.25;5115452;28;19963;-64
2023/03/24 01:52:19;;;;;;;;;;;;;;;10.99;73.89;99159.69;5115513;28;20426;-64
2023/03/24 01:54:49;;;;;;;;;;;;;;;11.00;74.12;99159.66;5096877;28;20353;-64
2023/03/24 01:57:21;;;;;;;;;;;;;;;11.01;73.69;99163.06;5113921;28;19962;-64
2023/03/24 01:59:51;;;;;;;;;;;;;;;10.99;73.82;99154.59;5113781;28;19927;-64
2023/03/24 02:02:41;;;;;;;;;;;;;;;11.01;73.99;99157.97;5114956;28;19919;-64
2023/03/24 02:05:13;;;;;;;;;;;;;;;11.01;73.50;99152.84;5113782;28;19924;-65
2023/03/24 02:07:48;;;;;;;;;;;;;;;10.89;74.16;99143.63;5114816;28;19919;-65
2023/03/24 02:10:19;;;;;;;;;;;;;;;10.89;74.22;99147.88;5115228;28;19962;-64
2023/03/24 02:12:48;;;;;;;;;;;;;;;10.89;74.19;99152.97;5114828;28;19949;-64
2023/03/24 02:15:18;;;;;;;;;;;;;;;10.81;74.28;99149.66;5115108;28;19959;-64
2023/03/24 02:17:53;;;;;;;;;;;;;;;10.79;73.99;99147.13;5113650;28;19923;-64
2023/03/24 02:20:43;;;;;;;;;;;;;;;10.78;74.60;99151.38;5113508;28;19926;-64
2023/03/24 02:23:22;;;;;;;;;;;;;;;10.72;74.62;99151.44;5114454;28;19919;-64
2023/03/24 02:26:02;;;;;;;;;;;;;;;10.82;74.87;99148.81;5114203;28;20014;-64
2023/03/24 02:28:39;;;;;;;;;;;;;;;10.74;74.35;99152.28;5113665;28;19959;-64
2023/03/24 02:31:23;;;;;;;;;;;;;;;10.74;75.00;99154.84;5114750;28;20006;-64
2023/03/24 02:34:09;;;;;;;;;;;;;;;10.82;74.89;99146.25;5113344;28;19966;-64
2023/03/24 02:36:48;;;;;;;;;;;;;;;10.84;74.89;99145.38;5113339;28;19920;-64
2023/03/24 02:39:34;;;;;;;;;;;;;;;10.88;74.66;99151.28;5113316;28;19919;-65
2023/03/24 02:42:06;;;;;;;;;;;;;;;10.82;74.68;99152.22;5114394;28;19920;-64
2023/03/24 02:44:40;;;;;;;;;;;;;;;10.67;74.75;99148.09;5113593;28;19970;-64
2023/03/24 02:47:13;;;;;;;;;;;;;;;10.70;75.10;99153.16;5113490;28;19920;-64
2023/03/24 02:49:45;;;;;;;;;;;;;;;10.66;75.01;99146.41;5114685;28;20014;-64
2023/03/24 02:52:17;;;;;;;;;;;;;;;10.69;75.79;99143.81;5113147;28;19969;-65
2023/03/24 02:54:51;;;;;;;;;;;;;;;10.76;75.47;99147.16;5114209;28;19924;-65
2023/03/24 02:57:22;;;;;;;;;;;;;;;10.80;75.39;99137.78;5113166;28;19926;-64
2023/03/24 03:00:06;;;;;;;;;;;;;;;10.83;75.04;99133.47;5114286;28;19920;-64
2023/03/24 03:02:46;;;;;;;;;;;;;;;10.77;75.31;99129.25;5114279;28;20430;-65
2023/03/24 03:05:17;;;;;;;;;;;;;;;10.75;75.03;99120.78;5114567;28;19920;-64
2023/03/24 03:07:47;;;;;;;;;;;;;;;10.77;75.15;99128.44;5113444;28;19923;-64
2023/03/24 03:10:20;;;;;;;;;;;;;;;10.70;75.62;99119.16;5113348;28;20430;-64
2023/03/24 03:12:52;;;;;;;;;;;;;;;10.70;75.47;99122.53;5116426;28;19927;-64
2023/03/24 03:15:23;;;;;;;;;;;;;;;10.69;75.47;99125.97;5118500;28;19923;-64
2023/03/24 03:17:53;;;;;;;;;;;;;;;10.72;75.79;99131.00;5118226;28;19920;-64
2023/03/24 03:20:23;;;;;;;;;;;;;;;10.71;75.90;99124.22;5118134;28;19927;-64
2023/03/24 03:22:55;;;;;;;;;;;;;;;10.68;75.95;99119.16;5116909;28;19926;-64
2023/03/24 03:25:27;;;;;;;;;;;;;;;10.69;76.01;99123.41;5118164;28;19926;-64
2023/03/24 03:27:58;;;;;;;;;;;;;;;10.68;75.82;99129.38;5117873;28;19920;-64
2023/03/24 03:30:29;;;;;;;;;;;;;;;10.69;75.94;99123.41;5117968;28;20011;-65
2023/03/24 03:33:02;;;;;;;;;;;;;;;10.70;75.99;99121.72;5117316;28;19920;-64
2023/03/24 03:35:33;;;;;;;;;;;;;;;10.70;75.75;99119.16;5117895;27;19920;-64
2023/03/24 03:38:07;;;;;;;;;;;;;;;10.64;75.99;99112.41;5117861;28;19920;-64
2023/03/24 03:40:40;;;;;;;;;;;;;;;10.62;76.11;99109.03;5116621;28;19919;-64
2023/03/24 03:43:16;;;;;;;;;;;;;;;10.62;76.25;99113.28;5117987;28;19963;-64
2023/03/24 03:45:44;;;;;;;;;;;;;;;10.59;76.43;99106.50;5117614;28;19920;-64
2023/03/24 03:48:15;;;;;;;;;;;;;;;10.59;76.43;99103.94;5116264;28;19920;-64
2023/03/24 03:50:44;;;;;;;;;;;;;;;10.56;76.15;99109.06;5116941;28;20482;-65
2023/03/24 03:53:13;;;;;;;;;;;;;;;10.58;76.55;99104.78;5117470;28;20022;-65
2023/03/24 03:55:44;;;;;;;;;;;;;;;10.54;75.89;99100.59;5118031;28;19926;-65
2023/03/24 03:58:13;;;;;;;;;;;;;;;10.57;76.41;99105.66;5116504;28;19988;-65
2023/03/24 04:00:48;;;;;;;;;;;;;;;10.58;76.49;99117.56;5117785;28;19927;-64
2023/03/24 04:03:49;;;;;;;;;;;;;;;10.55;76.21;99107.41;5078904;28;19919;-64
2023/03/24 04:06:26;;;;;;;;;;;;;;;10.55;76.43;99112.50;5117578;28;20327;-64
2023/03/24 04:09:00;;;;;;;;;;;;;;;10.52;76.47;99101.47;5115853;28;19920;-65
2023/03/24 04:11:40;;;;;;;;;;;;;;;10.55;76.70;99104.00;5117205;28;19954;-64
2023/03/24 04:14:17;;;;;;;;;;;;;;;10.55;76.43;99102.28;5117405;28;20400;-65
2023/03/24 04:17:11;;;;;;;;;;;;;;;10.59;75.95;99098.84;5117304;27;19923;-64
2023/03/24 04:19:49;;;;;;;;;;;;;;;10.58;75.92;99097.13;5116142;28;19919;-65
2023/03/24 04:22:24;;;;;;;;;;;;;;;10.57;76.59;99097.16;5116896;28;20392;-64
2023/03/24 04:25:11;;;;;;;;;;;;;;;10.48;76.36;99095.56;5116103;28;19992;-65
2023/03/24 04:27:45;;;;;;;;;;;;;;;10.51;76.72;99095.50;5115722;28;19920;-65
2023/03/24 04:30:23;;;;;;;;;;;;;;;10.52;76.77;99102.31;5115375;28;19920;-65
2023/03/24 04:32:57;;;;;;;;;;;;;;;10.48;76.68;99098.13;5115445;28;20006;-65
2023/03/24 04:35:31;;;;;;;;;;;;;;;10.46;76.90;99107.47;5116731;28;19920;-65
2023/03/24 04:38:13;;;;;;;;;;;;;;;10.43;76.88;99107.50;5116663;28;19919;-64
2023/03/24 04:40:43;;;;;;;;;;;;;;;10.45;77.24;99105.78;5115419;28;20007;-64
2023/03/24 04:43:18;;;;;;;;;;;;;;;10.40;76.47;99110.09;5116539;28;19926;-65
2023/03/24 04:45:48;;;;;;;;;;;;;;;10.37;76.93;99106.69;5115639;28;19923;-63
2023/03/24 04:48:27;;;;;;;;;;;;;;;10.42;77.00;99105.81;5116421;28;20010;-64
2023/03/24 04:51:09;;;;;;;;;;;;;;;10.36;76.66;99098.22;5116326;28;19926;-65
2023/03/24 04:53:50;;;;;;;;;;;;;;;10.35;76.90;99095.69;5116291;28;19926;-64
2023/03/24 04:56:27;;;;;;;;;;;;;;;10.38;76.73;99099.06;5115336;28;20013;-64
2023/03/24 04:59:06;;;;;;;;;;;;;;;10.45;76.98;99093.03;5116523;28;19926;-65
2023/03/24 05:01:36;;;;;;;;;;;;;;;10.50;77.13;99096.38;5115293;28;20373;-64
2023/03/24 05:04:29;;;;;;;;;;;;;;;10.52;76.55;99111.66;5107821;28;19926;-65
2023/03/24 05:07:08;;;;;;;;;;;;;;;10.51;76.95;99097.25;5116100;28;19920;-65
2023/03/24 05:09:36;;;;;;;;;;;;;;;10.51;76.58;99089.59;5114704;28;19924;-65
2023/03/24 05:12:05;;;;;;;;;;;;;;;10.48;76.93;99094.72;5114777;28;19920;-65
2023/03/24 05:14:51;;;;;;;;;;;;;;;10.50;77.10;99098.09;5115954;28;19967;-65
2023/03/24 05:17:20;;;;;;;;;;;;;;;10.47;77.11;99108.31;5116755;28;20010;-65
2023/03/24 05:19:49;;;;;;;;;;;;;;;10.44;77.68;99104.09;5114803;28;19946;-64
2023/03/24 05:22:17;;;;;;;;;;;;;;;10.51;77.74;99118.47;5115499;28;20011;-65
2023/03/24 05:24:46;;;;;;;;;;;;;;;10.48;77.49;99110.88;5114796;28;19968;-65
2023/03/24 05:27:14;;;;;;;;;;;;;;;10.52;77.18;99102.31;5115913;28;20348;-65
2023/03/24 05:29:43;;;;;;;;;;;;;;;10.58;77.17;99099.69;5114365;28;19920;-65
2023/03/24 05:32:18;;;;;;;;;;;;;;;10.67;77.09;99104.72;5115557;28;20361;-65
2023/03/24 05:34:46;;;;;;;;;;;;;;;10.73;77.34;99114.84;5115469;28;19926;-65
2023/03/24 05:37:16;;;;;;;;;;;;;;;10.75;77.31;99118.22;5114276;28;19923;-65
2023/03/24 05:39:50;;;;;;;;;;;;;;;10.80;77.39;99128.38;5114471;28;19923;-65
2023/03/24 05:42:31;;;;;;;;;;;;;;;10.83;77.18;99123.25;5115633;28;20386;-65
2023/03/24 05:45:03;;;;;;;;;;;;;;;10.85;77.09;99120.69;5114104;28;19920;-65
2023/03/24 05:47:33;;;;;;;;;;;;;;;10.84;77.41;99113.91;5113998;28;19943;-65
2023/03/24 05:50:01;;;;;;;;;;;;;;;10.86;77.21;99114.72;5113960;28;19920;-65
2023/03/24 05:52:32;;;;;;;;;;;;;;;10.89;77.15;99117.25;5115048;28;19919;-64
2023/03/24 05:55:18;;;;;;;;;;;;;;;10.98;76.91;99122.25;5115382;28;19919;-65
2023/03/24 05:57:50;;;;;;;;;;;;;;;11.03;76.76;99125.59;5113928;28;19923;-65
2023/03/24 06:00:32;;;;;;;;;;;;;;;11.05;76.99;99123.88;5115018;28;20015;-64
2023/03/24 06:03:12;;;;;;;;;;;;;;;11.07;76.76;99117.03;5114944;28;20010;-65
2023/03/24 06:05:46;;;;;;;;;;;;;;;11.12;77.04;99112.72;5115134;28;19923;-63
2023/03/24 06:08:17;;;;;;;;;;;;;;;11.15;76.91;99120.34;5114235;28;20277;-64
2023/03/24 06:10:47;;;;;;;;;;;;;;;11.18;77.01;99120.31;5114892;28;19920;-65
2023/03/24 06:13:16;;;;;;;;;;;;;;;11.25;76.90;99117.63;5114320;28;19968;-65
2023/03/24 06:15:46;;;;;;;;;;;;;;;11.28;76.41;99121.88;5114883;28;19919;-64
2023/03/24 06:18:29;;;;;;;;;;;;;;;11.27;76.31;99121.03;5114724;28;19973;-65
2023/03/24 06:21:04;;;;;;;;;;;;;;;11.35;75.95;99120.91;5113465;28;19919;-64
2023/03/24 06:23:34;;;;;;;;;;;;;;;11.44;76.05;99123.38;5113451;28;19927;-65
2023/03/24 06:26:11;;;;;;;;;;;;;;;11.52;76.39;99121.53;5114557;28;19966;-65
2023/03/24 06:28:51;;;;;;;;;;;;;;;11.57;76.22;99119.78;5114778;28;19924;-65
2023/03/24 06:31:22;;;;;;;;;;;;;;;11.67;75.88;99121.34;5114541;28;19962;-65
2023/03/24 06:33:54;;;;;;;;;;;;;;;11.72;75.96;99119.59;5114405;28;19966;-65
2023/03/24 06:36:24;;;;;;;;;;;;;;;11.76;75.59;99110.16;5113196;28;19926;-64
2023/03/24 06:38:53;;;;;;;;;;;;;;;11.78;75.28;99111.81;5113371;28;19919;-64
2023/03/24 06:41:22;;;;;;;;;;;;;;;11.78;74.95;99104.16;5114592;28;19974;-64
2023/03/24 06:43:58;;;;;;;;;;;;;;;11.80;74.78;99112.69;5115080;28;19947;-65
2023/03/24 06:46:26;;;;;;;;;;;;;;;11.90;74.62;99109.09;5112785;28;19923;-64
2023/03/24 06:48:57;;;;;;;;;;;;;;;11.99;74.44;99103.00;5114469;28;19966;-64
2023/03/24 06:51:26;;;;;;;;;;;;;;;12.08;74.29;99103.72;5113060;28;19955;-64
2023/03/24 06:53:55;;;;;;;;;;;;;;;12.17;73.78;99102.69;5112878;28;19969;-64
2023/03/24 06:56:24;;;;;;;;;;;;;;;12.22;73.77;99103.47;5114484;28;19920;-65
2023/03/24 06:58:57;;;;;;;;;;;;;;;12.34;73.39;99094.72;5114252;28;19920;-64
2023/03/24 07:01:30;;;;;;;;;;;;;;;12.42;73.27;99098.88;5114250;28;19923;-64
2023/03/24 07:04:26;;;;;;;;;;;;;;;12.53;72.98;99088.41;5111961;28;19949;-64
2023/03/24 07:06:58;;;;;;;;;;;;;;;12.63;72.91;99082.25;5114671;28;19923;-65
2023/03/24 07:09:54;;;;;;;;;;;;;;;12.77;72.20;99080.28;5113090;28;19964;-65
2023/03/24 07:12:22;;;;;;;;;;;;;;;12.86;71.87;99080.09;5114144;28;20069;-65
2023/03/24 07:14:52;;;;;;;;;;;;;;;12.90;70.98;99083.47;5114053;28;19942;-65
2023/03/24 07:17:21;;;;;;;;;;;;;;;12.96;70.66;99091.00;5113115;28;19959;-65
2023/03/24 07:20:14;;;;;;;;;;;;;;;12.98;70.20;99079.84;5113982;28;19920;-64
2023/03/24 07:22:50;;;;;;;;;;;;;;;13.02;69.74;99078.94;5113778;28;19927;-64
2023/03/24 07:25:30;;;;;;;;;;;;;;;13.07;69.15;99074.59;5114222;28;20018;-64
2023/03/24 07:28:10;;;;;;;;;;;;;;;13.13;68.45;99069.34;5113900;28;19920;-64
2023/03/24 07:30:39;;;;;;;;;;;;;;;13.22;68.73;99071.69;5113633;28;19996;-64
2023/03/24 07:33:10;;;;;;;;;;;;;;;13.28;68.60;99069.03;5112948;28;19920;-64
2023/03/24 07:35:44;;;;;;;;;;;;;;;13.34;68.55;99074.00;5113085;28;20027;-64
2023/03/24 07:38:13;;;;;;;;;;;;;;;13.41;68.95;99075.56;5113039;28;19920;-64
2023/03/24 07:40:42;;;;;;;;;;;;;;;13.50;69.09;99071.13;5113657;28;19919;-65
2023/03/24 07:43:11;;;;;;;;;;;;;;;13.58;69.59;99067.50;5112998;28;19923;-65
2023/03/24 07:45:51;;;;;;;;;;;;;;;13.64;69.27;99061.38;5110106;28;19931;-64
2023/03/24 07:48:19;;;;;;;;;;;;;;;13.71;69.61;99062.94;5112586;28;19924;-64
2023/03/24 07:50:49;;;;;;;;;;;;;;;13.81;69.81;99064.41;5112828;28;20276;-65
2023/03/24 07:53:44;;;;;;;;;;;;;;;13.93;69.53;99058.97;5108113;28;19927;-65
2023/03/24 07:56:21;;;;;;;;;;;;;;;14.06;70.26;99060.34;5112699;28;19924;-65
2023/03/24 07:58:55;;;;;;;;;;;;;;;14.20;70.18;99057.47;5115779;28;20006;-65
2023/03/24 08:01:31;;;;;;;;;;;;;;;14.34;70.60;99060.53;5116129;28;19972;-65
2023/03/24 08:04:03;;;;;;;;;;;;;;;14.44;70.37;99055.16;5117616;28;19946;-65
2023/03/24 08:06:56;;;;;;;;;;;;;;;14.57;70.30;99053.06;5111359;28;19982;-65
2023/03/24 08:09:24;;;;;;;;;;;;;;;14.70;69.81;99059.56;5105603;28;19920;-65
2023/03/24 08:11:53;;;;;;;;;;;;;;;14.83;69.50;99060.09;5096547;28;19969;-65
2023/03/24 08:14:21;;;;;;;;;;;;;;;14.94;68.77;99048.63;5096930;28;19924;-65
2023/03/24 08:16:53;;;;;;;;;;;;;;;15.06;68.17;99048.28;5097014;28;20030;-65
2023/03/24 08:19:22;;;;;;;;;;;;;;;15.15;67.45;99037.72;5105778;28;19919;-65
2023/03/24 08:21:50;;;;;;;;;;;;;;;15.20;66.67;99041.00;5105646;28;19939;-65
2023/03/24 08:24:20;;;;;;;;;;;;;;;15.25;65.76;99035.72;5107022;28;19919;-65
2023/03/24 08:26:49;;;;;;;;;;;;;;;15.30;64.92;99031.28;5097337;28;19920;-65
2023/03/24 08:29:17;;;;;;;;;;;;;;;15.32;64.11;99024.34;5096477;28;20014;-64
2023/03/24 08:31:46;;;;;;;;;;;;;;;15.38;63.59;99011.28;5096212;28;19920;-65
2023/03/24 08:34:14;;;;;;;;;;;;;;;15.48;63.00;99010.16;5098752;28;19920;-65
2023/03/24 08:36:43;;;;;;;;;;;;;;;15.54;62.64;99004.84;5105406;28;20273;-65
2023/03/24 08:39:11;;;;;;;;;;;;;;;15.62;62.70;98999.47;5096116;28;19924;-65
2023/03/24 08:41:41;;;;;;;;;;;;;;;15.72;62.83;98999.09;5096058;28;20011;-64
2023/03/24 08:44:10;;;;;;;;;;;;;;;15.75;61.75;98988.72;5096078;28;20016;-64
2023/03/24 08:46:39;;;;;;;;;;;;;;;15.80;61.09;98994.53;5095784;28;19999;-64
2023/03/24 08:49:08;;;;;;;;;;;;;;;15.87;60.26;98990.03;5096350;28;19920;-64
2023/03/24 08:51:37;;;;;;;;;;;;;;;15.94;59.72;98978.63;5096122;28;20387;-64
2023/03/24 08:54:08;;;;;;;;;;;;;;;16.02;59.56;98976.66;5096110;28;20365;-65
2023/03/24 08:56:36;;;;;;;;;;;;;;;16.12;59.19;98977.19;5095921;28;19986;-65
2023/03/24 08:59:06;;;;;;;;;;;;;;;16.24;58.89;98969.88;5095435;28;19920;-64
2023/03/24 09:01:35;;;;;;;;;;;;;;;16.36;58.41;98976.34;5095413;28;19920;-64
2023/03/24 09:04:04;;;;;;;;;;;;;;;16.42;57.99;98978.69;5095672;28;20444;-63
2023/03/24 09:06:33;;;;;;;;;;;;;;;16.48;57.29;98970.75;5095752;28;19920;-63
2023/03/24 09:09:01;;;;;;;;;;;;;;;16.53;56.64;98963.72;5098495;28;19968;-64
2023/03/24 09:11:30;;;;;;;;;;;;;;;16.59;56.28;98958.34;5094709;28;19920;-64
2023/03/24 09:13:58;;;;;;;;;;;;;;;16.77;56.52;98958.50;5095448;28;20423;-64
2023/03/24 09:16:28;;;;;;;;;;;;;;;17.00;56.38;98954.22;5094901;28;19927;-64
2023/03/24 09:18:57;;;;;;;;;;;;;;;17.30;56.34;98953.84;5096181;28;19920;-63
2023/03/24 09:21:26;;;;;;;;;;;;;;;17.53;55.89;98940.09;5094772;28;19924;-64
2023/03/24 09:23:54;;;;;;;;;;;;;;;17.62;54.74;98938.84;5095277;28;20284;-64
2023/03/24 09:26:23;;;;;;;;;;;;;;;17.74;54.04;98940.94;5096098;28;19923;-64
2023/03/24 09:28:51;;;;;;;;;;;;;;;17.86;53.32;98928.34;5095284;28;19959;-64
2023/03/24 09:31:20;;;;;;;;;;;;;;;17.97;52.12;98930.50;5094555;28;19920;-64
2023/03/24 09:33:50;;;;;;;;;;;;;;;18.05;51.32;98933.56;5094741;28;19951;-64
2023/03/24 09:36:18;;;;;;;;;;;;;;;18.11;51.13;98925.56;5097600;28;19919;-64
2023/03/24 09:38:47;;;;;;;;;;;;;;;18.15;51.21;98919.38;5103960;28;19963;-63
2023/03/24 09:41:17;;;;;;;;;;;;;;;18.17;51.57;98922.72;5094952;28;19920;-64
2023/03/24 09:43:48;;;;;;;;;;;;;;;18.16;51.76;98918.47;5094780;28;19920;-64
2023/03/24 09:46:19;;;;;;;;;;;;;;;18.06;51.50;98918.03;5094948;28;19920;-64
2023/03/24 09:48:51;;;;;;;;;;;;;;;18.07;52.22;98921.44;5105335;28;19920;-65
2023/03/24 09:51:23;;;;;;;;;;;;;;;18.10;52.35;98910.97;5114839;28;19949;-65
2023/03/24 09:53:55;;;;;;;;;;;;;;;18.14;52.41;98909.91;5115019;28;19966;-65
2023/03/24 09:56:24;;;;;;;;;;;;;;;18.09;52.14;98909.31;5115437;28;19931;-65
2023/03/24 09:58:55;;;;;;;;;;;;;;;18.08;52.33;98907.63;5115248;28;19928;-65
2023/03/24 10:01:23;;;;;;;;;;;;;;;18.11;52.73;98898.91;5115080;28;19927;-63
2023/03/24 10:03:55;;;;;;;;;;;;;;;18.16;53.06;98900.38;5107919;28;19924;-65
2023/03/24 10:06:26;;;;;;;;;;;;;;;18.20;52.64;98907.09;5101139;28;19920;-64
2023/03/24 10:09:01;;;;;;;;;;;;;;;18.17;51.83;98906.38;5096613;28;19927;-65
2023/03/24 10:11:35;;;;;;;;;;;;;;;18.12;50.77;98909.16;5096723;28;19923;-64
2023/03/24 10:14:11;;;;;;;;;;;;;;;18.15;50.70;98914.19;5114640;28;19923;-65
2023/03/24 10:16:45;;;;;;;;;;;;;;;18.19;51.02;98915.72;5107609;28;20120;-64
2023/03/24 10:19:21;;;;;;;;;;;;;;;18.23;51.48;98900.94;5114753;28;19969;-63
2023/03/24 10:21:56;;;;;;;;;;;;;;;18.29;52.05;98900.66;5113483;28;19964;-63
2023/03/24 10:24:29;;;;;;;;;;;;;;;18.35;52.21;98901.25;5114202;28;20391;-63
2023/03/24 10:27:02;;;;;;;;;;;;;;;18.42;51.40;98901.81;5105303;28;19965;-63
2023/03/24 10:29:33;;;;;;;;;;;;;;;18.49;50.96;98898.91;5094437;28;19966;-63
2023/03/24 10:32:03;;;;;;;;;;;;;;;18.64;50.69;98892.22;5097725;28;19932;-63
2023/03/24 10:34:34;;;;;;;;;;;;;;;18.74;51.24;98896.88;5103001;28;20007;-63
2023/03/24 10:37:04;;;;;;;;;;;;;;;18.81;50.67;98892.28;5094495;28;19943;-64
2023/03/24 10:39:32;;;;;;;;;;;;;;;18.84;50.49;98893.84;5094671;28;20308;-63
2023/03/24 10:42:15;;;;;;;;;;;;;;;18.86;50.36;98892.88;5093157;28;19966;-63
2023/03/24 10:44:44;;;;;;;;;;;;;;;18.94;51.03;98897.69;5107465;28;19926;-63
2023/03/24 10:47:14;;;;;;;;;;;;;;;19.09;51.28;98894.38;5114451;28;19947;-63
2023/03/24 10:49:52;;;;;;;;;;;;;;;19.21;51.15;98901.56;5114718;28;19982;-63
2023/03/24 10:52:23;;;;;;;;;;;;;;;19.21;50.55;98904.16;5114595;28;19920;-63
2023/03/24 10:54:56;;;;;;;;;;;;;;;19.16;49.60;98908.69;5112371;28;20293;-63
2023/03/24 10:57:25;;;;;;;;;;;;;;;19.15;50.14;98899.25;5094214;28;19920;-63
2023/03/24 10:59:55;;;;;;;;;;;;;;;19.17;50.74;98897.44;5093904;28;19945;-63
2023/03/24 11:02:25;;;;;;;;;;;;;;;19.14;50.30;98911.38;5109891;28;20023;-63
2023/03/24 11:04:56;;;;;;;;;;;;;;;19.01;49.64;98912.00;5114505;28;19923;-62
2023/03/24 11:07:29;;;;;;;;;;;;;;;18.92;49.97;98920.19;5114210;28;19926;-63
2023/03/24 11:10:00;;;;;;;;;;;;;;;18.89;50.07;98912.59;5114183;28;19963;-64
2023/03/24 11:12:30;;;;;;;;;;;;;;;18.80;49.54;98920.78;5114435;28;19920;-63
2023/03/24 11:15:02;;;;;;;;;;;;;;;18.76;49.28;98916.66;5114305;28;19943;-63
2023/03/24 11:17:52;;;;;;;;;;;;;;;18.73;49.65;98918.47;5114083;28;20007;-63
2023/03/24 11:20:25;;;;;;;;;;;;;;;18.72;50.22;98913.38;5114546;28;19942;-63
2023/03/24 11:23:00;;;;;;;;;;;;;;;18.67;49.93;98918.75;5113825;28;19958;-63
2023/03/24 11:25:29;;;;;;;;;;;;;;;18.66;48.68;98922.25;5102799;28;19943;-63
2023/03/24 11:28:02;;;;;;;;;;;;;;;18.60;48.58;98925.09;5099714;28;19919;-63
2023/03/24 11:30:34;;;;;;;;;;;;;;;18.65;49.34;98930.91;5093692;28;19919;-62
2023/03/24 11:33:03;;;;;;;;;;;;;;;18.64;49.62;98918.88;5094119;28;19977;-62
2023/03/24 11:35:32;;;;;;;;;;;;;;;18.69;49.60;98916.13;5097408;28;20423;-66
2023/03/24 11:38:16;;;;;;;;;;;;;;;18.69;48.92;98911.75;5097755;28;20443;-63
2023/03/24 11:40:57;;;;;;;;;;;;;;;18.72;49.56;98903.03;5097611;28;19926;-63
2023/03/24 11:43:27;;;;;;;;;;;;;;;18.78;49.86;98904.50;5097341;28;19920;-62
2023/03/24 11:46:00;;;;;;;;;;;;;;;18.81;49.92;98904.34;5097462;28;19920;-63
2023/03/24 11:48:31;;;;;;;;;;;;;;;18.78;50.25;98904.50;5097144;28;19919;-63
2023/03/24 11:51:01;;;;;;;;;;;;;;;18.72;50.23;98900.44;5096224;28;20023;-63
2023/03/24 11:53:36;;;;;;;;;;;;;;;18.71;50.12;98899.59;5096766;28;19927;-63
2023/03/24 11:56:09;;;;;;;;;;;;;;;18.72;50.63;98901.28;5096159;28;19957;-64
2023/03/24 11:58:41;;;;;;;;;;;;;;;18.66;50.22;98900.72;5097513;28;19924;-62
2023/03/24 12:01:13;;;;;;;;;;;;;;;18.58;50.62;98892.47;5097374;28;19923;-63
2023/03/24 12:03:57;;;;;;;;;;;;;;;18.55;49.98;98892.59;5097212;28;19955;-63
2023/03/24 12:06:33;;;;;;;;;;;;;;;18.51;49.89;98897.09;5094733;28;20434;-62
2023/03/24 12:09:15;;;;;;;;;;;;;;;18.55;50.10;98900.38;5096870;28;20427;-63
2023/03/24 12:11:52;;;;;;;;;;;;;;;18.60;50.34;98891.50;5095487;28;19924;-64
2023/03/24 12:14:25;;;;;;;;;;;;;;;18.65;50.59;98894.72;5099120;28;19973;-65
2023/03/24 12:16:59;;;;;;;;;;;;;;;18.68;50.98;98894.59;5117075;28;19930;-63
2023/03/24 12:19:43;;;;;;;;;;;;;;;18.71;50.71;98889.25;5116916;28;19920;-63
2023/03/24 12:22:18;;;;;;;;;;;;;;;18.79;51.02;98899.25;5116771;28;19949;-63
2023/03/24 12:24:57;;;;;;;;;;;;;;;18.78;49.85;98896.75;5117266;28;19919;-64
2023/03/24 12:27:32;;;;;;;;;;;;;;;18.73;49.78;98891.78;5117226;28;19919;-64
2023/03/24 12:30:06;;;;;;;;;;;;;;;18.81;49.90;98886.25;5116786;28;19927;-63
2023/03/24 12:32:44;;;;;;;;;;;;;;;18.87;50.01;98879.03;5116747;28;19961;-64
2023/03/24 12:35:21;;;;;;;;;;;;;;;18.88;50.48;98885.91;5116634;28;20357;-63
2023/03/24 12:37:56;;;;;;;;;;;;;;;18.91;51.02;98874.59;5116605;28;19919;-63
2023/03/24 12:40:45;;;;;;;;;;;;;;;18.94;50.16;98874.41;5116312;28;19919;-65
2023/03/24 12:43:20;;;;;;;;;;;;;;;18.90;50.00;98867.72;5096145;28;19960;-65
2023/03/24 12:45:51;;;;;;;;;;;;;;;18.83;49.70;98874.94;5095315;28;19931;-64
2023/03/24 12:48:33;;;;;;;;;;;;;;;18.83;49.81;98867.19;5095448;28;19924;-64
2023/03/24 12:51:08;;;;;;;;;;;;;;;18.86;50.00;98866.19;5095831;28;19920;-64
2023/03/24 12:53:47;;;;;;;;;;;;;;;18.89;50.24;98861.69;5096088;28;19920;-64
2023/03/24 12:56:20;;;;;;;;;;;;;;;18.83;49.62;98850.81;5096095;28;20366;-64
2023/03/24 12:58:49;;;;;;;;;;;;;;;18.81;49.27;98855.22;5096237;28;19963;-64
2023/03/24 13:01:23;;;;;;;;;;;;;;;18.78;48.82;98843.28;5096086;28;20007;-64
2023/03/24 13:03:55;;;;;;;;;;;;;;;18.78;48.66;98842.44;5095249;28;19920;-64
2023/03/24 13:06:28;;;;;;;;;;;;;;;18.79;48.47;98850.13;5095517;28;20438;-65
2023/03/24 13:09:03;;;;;;;;;;;;;;;18.80;48.31;98831.13;5095624;28;19981;-65
2023/03/24 13:11:38;;;;;;;;;;;;;;;18.84;47.95;98829.22;5095673;28;19920;-63
2023/03/24 13:14:12;;;;;;;;;;;;;;;18.88;48.31;98823.00;5095413;28;19920;-63
2023/03/24 13:16:42;;;;;;;;;;;;;;;18.92;48.20;98824.50;5095736;28;19920;-64
2023/03/24 13:19:14;;;;;;;;;;;;;;;18.96;47.91;98818.28;5095513;28;19973;-64